CheckWX is a tool to help pilots better visualize weather data.  It is not intended as a substitute for an official pre-flight weather briefing.

05:39:35 UTC

ESGT METAR
Trollhättan-Vänersborg Airport
Trollhättan, Sweden
Current

20 mins ago

ESGT 200520Z 02002KT CAVOK M01/M02 Q1009
Observed
Feb-20 @ 05:20 UTC
Wind
  • 020° at 2 KTS
Visibility
10,000+ meters
Flight Rules
VFR
Cloud Levels
  • Clear skies
Temperature
-1°C / 30°F
Dewpoint
-2°C / 28°F
Humidity
93%
Altimeter
29.79" Hg
Pressure
1008.92 hPa
Previous

50 mins ago

ESGT 200450Z AUTO 00000KT 9999 NCD M01/M02 Q1008
Observed
Feb-20 @ 04:50 UTC
Visibility
10,000+ meters
Flight Rules
VFR
Cloud Levels
  • Clear skies
Temperature
-1°C / 30°F
Dewpoint
-2°C / 28°F
Humidity
93%
Altimeter
29.76" Hg
Pressure
1007.92 hPa
Previous

1 hour ago

ESGT 200420Z AUTO VRB02KT 9999 NCD M01/M02 Q1008
Observed
Feb-20 @ 04:20 UTC
Wind
  • Variable at 2 KTS
Visibility
10,000+ meters
Flight Rules
VFR
Cloud Levels
  • Clear skies
Temperature
-1°C / 30°F
Dewpoint
-2°C / 28°F
Humidity
93%
Altimeter
29.76" Hg
Pressure
1007.92 hPa